Westlake, OR (97493)

5:17 AM PDT on October 02, 2014 (GMT -0700)
Florence Public Works | Change Station
CLOSE
Current Station
Personal Weather Station
Location: Florence, OR
Elevation: 69 ft
Nearby Weather Stations

Elev 69 ft 43.98 °N, 124.10 °W | Updated 24 seconds ago

Clear
Clear
48.9 °F
Feels Like 49 °F
N
0.0
Wind Variable Wind from WSW
Gusts 0.0 mph

Today
High -- | Low -- °F
--% Chance of Precip.
Yesterday
High -- | Low -- °F
Precip. -- in
7:15 AM 6:55 PM
First Quarter, 58% visible
Pressure 30.18 in
Visibility 10.0 miles
Clouds Clear
Windchill 49 °F
Dew Point 49 °F
Humidity 99%
Rainfall 0.00 in
Snow Depth 0 in , 0 in , 0 in
UV 0 out of 12
Pollen 1.40 out of 12
Air Quality Not available.
Flu Activity Not available.
METAR KOTH 021155Z 02003KT 10SM CLR 10/10 A3018 RMK AO1 10130 20090 57003

More Conditions Fewer Conditions

Pressure 30.18 in
Visibility 10.0 miles
Clouds Clear
Windchill 49 °F
Dew Point 49 °F
Humidity 99%
Rainfall 0.00 in
Snow Depth 0 in , 0 in , 0 in
UV 0 out of 12
Pollen 1.40 out of 12
Air Quality Not available.
Flu Activity Not available.
METAR KOTH 021155Z 02003KT 10SM CLR 10/10 A3018 RMK AO1 10130 20090 57003

More Conditions Fewer Conditions

10-Day Weather Forecast

Almanac

Astronomy

Oct. 02, 2014 Rise Set
Actual Time 7:15 AM PDT 6:55 PM PDT
Civil Twilight 6:46 AM PDT 7:23 PM PDT
Nautical Twilight 6:13 AM PDT 7:57 PM PDT
Astronomical Twilight 5:39 AM PDT 8:30 PM PDT
Moon 3:16 PM PDT 12:26 AM PDT
Length of Visible Light 12h 37m
Length of Day
11h 39m
Tomorrow will be 2m 59s shorter.
First Quarter, 58% of the Moon is Illuminated
Today
First Quarter
Oct 8
Full
Oct 15
Last Quarter
Oct 23
New
Oct 30
First Quarter

Today's Extremes

State Highs State Lows

Community

WunderPhotos

Upload Photos

1,758,223 photos uploaded!

WunderBlogs® & News

Nearby

Snow Depth

Station Depth Elevation
Blazed Alder 0 in 3650 ft
Mckenzie 0 in 4800 ft
Schneider Meadows 0 in 5400 ft
Billie Creek Divide 0 in 5300 ft
Fourmile Lake 0 in 6000 ft

Earthquake Activity

City Distance Mag. Time & Date
No recent earthquake activity has been reported nearby.
Minimum magnitude displayed is 2.5.

Coastal Water Temperatures

Place Temperature
Port Orford, OR 53.1 °F
Charleston, OR 59.0 °F
South Beach, OR 60.1 °F

Nearby Weather Stations